Time;durP1;ratioP1;P1;durP2;ratioP2;P2;SDS_P1;SDS_P2;PMS_P1;PMS_P2;Temp;Humidity;BMP_temperature;BMP_pressure;BME280_temperature;BME280_humidity;BME280_pressure;Samples;Min_cycle;Max_cycle;Signal;HPM_P1;HPM_P2
2024/03/14 00:01:06;;;;;;;;;25.00;24.20;;;;;11.32;70.57;101448.25;2003486;28;3593957;-81
2024/03/14 00:02:18;;;;;;;;;30.00;24.40;;;;;11.25;70.70;101444.91;1998744;28;3594994;-81
2024/03/14 00:03:31;;;;;;;;;22.00;20.50;;;;;11.27;70.72;101445.72;2021487;28;2845005;-82
2024/03/14 00:04:43;;;;;;;;;29.00;26.60;;;;;11.27;70.77;101447.50;1994808;28;3606429;-81
2024/03/14 00:05:55;;;;;;;;;28.60;23.60;;;;;11.28;70.62;101454.50;2003368;28;3614854;-81
2024/03/14 00:07:07;;;;;;;;;26.00;24.40;;;;;11.22;70.45;101445.84;2010744;28;3592354;-80
2024/03/14 00:08:19;;;;;;;;;24.33;21.00;;;;;11.24;70.71;101448.41;1992368;28;3604449;-81
2024/03/14 00:09:31;;;;;;;;;32.33;28.33;;;;;11.22;70.68;101439.72;1983633;28;3585110;-81
2024/03/14 00:10:43;;;;;;;;;31.67;29.00;;;;;11.24;70.69;101443.16;2003944;28;3592950;-81
2024/03/14 00:11:55;;;;;;;;;27.00;26.00;;;;;11.18;70.67;101438.94;1991851;28;2860682;-81
2024/03/14 00:13:07;;;;;;;;;28.33;26.00;;;;;11.20;70.70;101437.13;1982778;28;3607569;-81
2024/03/14 00:14:19;;;;;;;;;32.60;29.20;;;;;11.14;70.58;101429.38;2008288;28;3597097;-81
2024/03/14 00:15:31;;;;;;;;;35.33;28.67;;;;;11.19;70.63;101435.38;1998931;28;3608552;-81
2024/03/14 00:16:43;;;;;;;;;28.67;26.67;;;;;11.10;70.53;101425.09;1989491;28;3602342;-81
2024/03/14 00:17:55;;;;;;;;;28.60;25.60;;;;;11.16;70.64;101429.34;1994656;28;3609594;-81
2024/03/14 00:19:07;;;;;;;;;30.00;26.00;;;;;11.17;70.45;101431.06;1991720;28;3601345;-81
2024/03/14 00:20:19;;;;;;;;;26.60;23.60;;;;;11.09;70.53;101423.34;2014367;28;3598101;-81
2024/03/14 00:21:31;;;;;;;;;28.33;23.67;;;;;11.10;70.45;101418.06;2000110;28;3599209;-81
2024/03/14 00:22:42;;;;;;;;;25.20;25.20;;;;;11.07;70.34;101419.88;2035410;28;1848765;-81
2024/03/14 00:23:54;;;;;;;;;27.00;24.00;;;;;11.03;70.68;101409.47;1988811;28;2860669;-81
2024/03/14 00:25:09;;;;;;;;;29.67;28.67;;;;;10.99;70.67;101409.53;1983701;28;3588788;-81
2024/03/14 00:26:21;;;;;;;;;29.67;26.00;;;;;11.02;70.63;101415.63;2009720;28;3603360;-81
2024/03/14 00:27:33;;;;;;;;;29.20;26.60;;;;;11.05;70.46;101412.03;2004038;28;3604365;-80
2024/03/14 00:28:45;;;;;;;;;30.33;27.67;;;;;11.03;70.64;101414.72;2001757;28;3610658;-81
2024/03/14 00:29:57;;;;;;;;;28.67;25.00;;;;;11.02;70.50;101412.13;1998937;28;3602401;-81
2024/03/14 00:31:10;;;;;;;;;27.60;27.00;;;;;11.01;70.70;101418.28;2029440;28;3600191;-81
2024/03/14 00:32:24;;;;;;;;;26.67;25.00;;;;;10.99;70.15;101414.81;1990483;28;3589786;-81
2024/03/14 00:33:34;;;;;;;;;28.00;28.00;;;;;10.91;70.45;101399.22;2016259;28;2858591;-81
2024/03/14 00:34:46;;;;;;;;;28.67;25.00;;;;;10.99;70.43;101410.41;1998394;28;3589882;-81
2024/03/14 00:35:59;;;;;;;;;25.00;24.60;;;;;10.92;70.38;101403.56;2021735;28;3586662;-81
2024/03/14 00:37:11;;;;;;;;;28.00;26.00;;;;;10.97;70.36;101414.84;2011427;28;3587730;-81
2024/03/14 00:38:22;;;;;;;;;29.00;23.50;;;;;10.95;70.70;101416.66;2008281;28;2862763;-82
2024/03/14 00:39:34;;;;;;;;;30.20;26.60;;;;;10.87;70.69;101403.69;1996007;28;3611689;-81
2024/03/14 00:40:46;;;;;;;;;25.60;24.00;;;;;10.90;70.45;101413.28;2025175;28;3591926;-81
2024/03/14 00:41:58;;;;;;;;;28.60;24.00;;;;;10.86;70.53;101404.59;1990177;28;3598172;-81
2024/03/14 00:43:09;;;;;;;;;25.00;23.33;;;;;10.88;70.57;101404.56;1988759;28;3582554;-81
2024/03/14 00:44:22;;;;;;;;;25.20;25.00;;;;;10.87;70.47;101408.06;2027362;28;3591862;-81
2024/03/14 00:45:33;;;;;;;;;31.00;27.00;;;;;10.86;70.43;101396.72;1986021;28;3598136;-81
2024/03/14 00:46:45;;;;;;;;;27.40;27.00;;;;;10.84;70.64;101397.66;2021433;28;3590833;-81
2024/03/14 00:47:57;;;;;;;;;27.80;26.80;;;;;10.75;70.56;101383.81;2011426;28;3599154;-81
2024/03/14 00:49:10;;;;;;;;;27.33;23.33;;;;;10.84;70.75;101397.66;1998676;28;3604465;-81
2024/03/14 00:50:22;;;;;;;;;30.00;26.40;;;;;10.78;70.83;101390.75;1984377;28;3608521;-81
2024/03/14 00:51:33;;;;;;;;;25.00;25.00;;;;;10.79;70.62;101395.97;1986792;28;2844346;-81
2024/03/14 00:52:45;;;;;;;;;28.80;25.40;;;;;10.79;70.76;101397.75;1983653;28;3610651;-81
2024/03/14 00:53:57;;;;;;;;;29.40;24.40;;;;;10.77;70.88;101395.16;1996253;28;3595003;-81
2024/03/14 00:55:09;;;;;;;;;28.60;26.60;;;;;10.76;70.93;101395.19;1994836;28;3607534;-81
2024/03/14 00:56:21;;;;;;;;;25.00;23.33;;;;;10.71;70.83;101390.03;1996250;28;3583566;-81
2024/03/14 00:57:33;;;;;;;;;29.67;26.67;;;;;10.76;70.95;101393.44;2024167;28;3599197;-81
2024/03/14 00:58:45;;;;;;;;;26.20;21.00;;;;;10.73;71.15;101388.25;2011382;28;3590833;-81
2024/03/14 00:59:57;;;;;;;;;24.20;22.80;;;;;10.74;71.09;101389.94;2001629;28;3580438;-81
2024/03/14 01:01:09;;;;;;;;;26.40;24.20;;;;;10.75;70.64;101396.09;2023063;28;3593982;-81
2024/03/14 01:02:21;;;;;;;;;29.00;26.00;;;;;10.75;71.22;101391.69;2004986;28;3590817;-81
2024/03/14 01:03:33;;;;;;;;;30.80;26.60;;;;;10.73;71.25;101388.25;1996727;28;3589787;-81
2024/03/14 01:04:45;;;;;;;;;26.00;22.67;;;;;10.72;71.44;101389.13;1989274;28;3600241;-81
2024/03/14 01:05:57;;;;;;;;;31.33;26.33;;;;;10.72;71.53;101397.03;1985007;28;3603389;-81
2024/03/14 01:07:08;;;;;;;;;27.50;24.00;;;;;10.75;71.12;101399.59;1993212;28;2853409;-81
2024/03/14 01:08:20;;;;;;;;;27.80;24.00;;;;;10.71;71.07;101392.69;2011565;28;3597070;-81
2024/03/14 01:09:32;;;;;;;;;30.40;27.00;;;;;10.73;71.50;101390.88;2039065;28;3593945;-81
2024/03/14 01:10:43;;;;;;;;;27.00;24.50;;;;;10.68;71.19;101384.84;1987705;28;2837726;-81
2024/03/14 01:11:55;;;;;;;;;32.20;25.80;;;;;10.71;71.31;101386.53;1999895;28;3609727;-80
2024/03/14 01:13:07;;;;;;;;;30.80;25.80;;;;;10.73;71.22;101387.38;2005031;28;3597101;-81
2024/03/14 01:14:20;;;;;;;;;27.67;23.00;;;;;10.73;71.11;101387.38;1989039;28;3587760;-81
2024/03/14 01:15:31;;;;;;;;;25.50;23.50;;;;;10.71;71.13;101387.41;1998725;28;2856526;-81
2024/03/14 01:16:43;;;;;;;;;28.80;25.80;;;;;10.72;70.86;101389.13;2000998;28;3596017;-80
2024/03/14 01:17:55;;;;;;;;;30.00;24.00;;;;;10.69;71.24;101386.59;2010914;28;3595080;-81
2024/03/14 01:19:06;;;;;;;;;28.33;27.00;;;;;10.69;71.10;101391.84;2029604;28;3577834;-81
2024/03/14 01:20:20;;;;;;;;;27.20;23.60;;;;;10.67;71.37;101385.75;2036645;28;3600259;-81
2024/03/14 01:21:39;;;;;;;;;27.33;22.67;;;;;10.71;71.34;101391.81;1986968;28;2848178;-81
2024/03/14 01:22:49;;;;;;;;;15.50;15.50;;;;;10.65;71.13;101379.66;2008816;28;2816925;-81
2024/03/14 01:24:01;;;;;;;;;27.33;25.33;;;;;10.65;71.13;101384.91;2007098;28;3589787;-80
2024/03/14 01:25:13;;;;;;;;;25.20;21.20;;;;;10.66;71.33;101389.28;2022926;28;3588730;-81
2024/03/14 01:26:26;;;;;;;;;26.00;22.50;;;;;10.64;71.11;101384.03;1972076;28;2850308;-81
2024/03/14 01:27:36;;;;;;;;;21.50;19.00;;;;;10.67;71.06;101385.75;1988142;28;2848214;-81
2024/03/14 01:28:47;;;;;;;;;18.00;16.00;;;;;10.64;71.42;101385.84;2010026;28;2835689;-81
2024/03/14 01:29:59;;;;;;;;;21.50;20.50;;;;;10.56;71.14;101376.34;2009928;28;2825619;-81
2024/03/14 01:31:11;;;;;;;;;12.25;11.50;;;;;10.63;71.19;101386.72;2015131;28;1841033;-81
2024/03/14 01:32:24;;;;;;;;;33.00;26.00;;;;;10.64;71.23;101388.47;2006561;28;3599181;-81
2024/03/14 01:33:36;;;;;;;;;25.33;20.00;;;;;10.58;71.07;101374.56;1987042;28;3586710;-80
2024/03/14 01:34:47;;;;;;;;;29.50;27.50;;;;;10.62;71.45;101382.38;2000963;28;2864872;-81
2024/03/14 01:36:00;;;;;;;;;28.20;24.60;;;;;10.60;71.33;101379.75;1985072;28;3599174;-80
2024/03/14 01:37:11;;;;;;;;;24.00;22.50;;;;;10.57;71.23;101374.56;2002026;28;2832514;-81
2024/03/14 01:38:22;;;;;;;;;24.00;23.33;;;;;10.60;71.30;101376.25;1999592;28;3577312;-81
2024/03/14 01:39:35;;;;;;;;;25.67;25.33;;;;;10.58;71.20;101374.56;2016832;28;3592979;-81
2024/03/14 01:40:46;;;;;;;;;22.00;21.00;;;;;10.56;71.13;101371.09;1983560;28;2850308;-81
2024/03/14 01:41:58;;;;;;;;;21.33;20.00;;;;;10.57;71.19;101379.81;2008675;28;3584642;-81
2024/03/14 01:43:10;;;;;;;;;25.00;24.00;;;;;10.56;71.37;101371.09;2022841;28;3582540;-81
2024/03/14 01:44:23;;;;;;;;;23.00;22.33;;;;;10.53;70.98;101370.28;2012853;28;3585648;-81
2024/03/14 01:45:35;;;;;;;;;23.67;22.67;;;;;10.54;71.11;101370.25;2003394;28;3578353;-81
2024/03/14 01:46:46;;;;;;;;;26.50;23.00;;;;;10.54;71.41;101367.63;2009026;28;2850296;-81
2024/03/14 01:47:58;;;;;;;;;22.40;22.40;;;;;10.54;71.03;101372.88;2002878;28;3589799;-81
2024/03/14 01:49:10;;;;;;;;;23.00;23.00;;;;;10.50;71.23;101360.66;2024177;28;3580483;-81
2024/03/14 01:50:22;;;;;;;;;25.67;22.33;;;;;10.48;71.25;101357.22;2025285;28;3591913;-81
2024/03/14 01:51:34;;;;;;;;;23.33;19.67;;;;;10.50;71.13;101360.66;1991775;28;3590852;-81
2024/03/14 01:52:46;;;;;;;;;23.00;21.33;;;;;10.50;71.28;101360.66;2014723;28;3589839;-81
2024/03/14 01:53:59;;;;;;;;;19.20;18.00;;;;;10.52;71.42;101360.69;2042785;28;1834689;-81
2024/03/14 01:55:11;;;;;;;;;22.33;20.00;;;;;10.52;71.08;101365.94;2016169;28;3577311;-81
2024/03/14 01:56:22;;;;;;;;;19.67;19.67;;;;;10.47;71.02;101355.47;2002627;28;3560106;-81
2024/03/14 01:57:34;;;;;;;;;17.00;15.50;;;;;10.47;71.30;101353.72;2000293;28;2801332;-81
2024/03/14 01:58:45;;;;;;;;;21.33;19.33;;;;;10.46;71.26;101353.78;1983181;28;3576257;-81
2024/03/14 01:59:58;;;;;;;;;22.40;20.00;;;;;10.46;71.27;101353.78;2027874;28;3586670;-81
2024/03/14 02:01:13;;;;;;;;;24.00;21.33;;;;;10.45;71.14;101352.03;2003261;28;3570047;-81
2024/03/14 02:02:27;;;;;;;;;22.00;19.00;;;;;10.42;71.10;101346.88;2008543;28;2847124;-81
2024/03/14 02:03:40;;;;;;;;;23.33;21.00;;;;;10.40;71.23;101346.88;1990630;28;3592951;-81
2024/03/14 02:05:10;;;;;;;;;18.00;18.00;;;;;10.37;71.34;101341.69;1977602;28;2831539;-81
2024/03/14 02:06:30;;;;;;;;;18.33;18.00;;;;;10.37;70.98;101341.69;2005270;28;2833675;-81
2024/03/14 02:07:42;;;;;;;;;25.00;22.00;;;;;10.38;71.17;101342.56;2014324;28;3586683;-81
2024/03/14 02:08:54;;;;;;;;;23.20;19.60;;;;;10.37;71.02;101346.09;2027848;28;3567896;-81
2024/03/14 02:10:08;;;;;;;;;20.33;20.00;;;;;10.37;70.79;101351.34;2030170;28;3579394;-81
2024/03/14 02:11:21;;;;;;;;;23.33;20.00;;;;;10.33;70.91;101346.16;2007134;28;3566935;-81
2024/03/14 02:12:35;;;;;;;;;24.67;21.33;;;;;10.34;70.79;101350.53;2007561;28;3582559;-81
2024/03/14 02:13:47;;;;;;;;;17.33;16.33;;;;;10.33;70.84;101340.91;2015932;28;2819118;-81
2024/03/14 02:14:57;;;;;;;;;23.00;21.00;;;;;10.27;70.89;101333.16;2016816;28;2850268;-81
2024/03/14 02:16:09;;;;;;;;;17.33;16.33;;;;;10.29;70.74;101336.63;2004416;28;2831511;-81
2024/03/14 02:17:20;;;;;;;;;21.50;21.50;;;;;10.24;70.93;101325.34;2013196;28;2848145;-81
2024/03/14 02:18:32;;;;;;;;;21.00;18.00;;;;;10.27;70.80;101332.31;2005228;28;3577316;-81
2024/03/14 02:19:43;;;;;;;;;20.67;19.00;;;;;10.26;70.86;101336.69;2022766;28;3577368;-79
2024/03/14 02:20:55;;;;;;;;;21.67;19.67;;;;;10.22;70.58;101324.53;2025130;28;3580767;-81
2024/03/14 02:22:17;;;;;;;;;24.00;21.33;;;;;10.17;70.52;101321.13;2022403;28;3578380;-81
2024/03/14 02:23:28;;;;;;;;;18.50;18.50;;;;;10.18;70.81;101323.72;2002789;28;2839888;-81
2024/03/14 02:24:39;;;;;;;;;18.67;17.67;;;;;10.19;71.03;101328.06;1985720;28;3567289;-81
2024/03/14 02:25:51;;;;;;;;;23.33;21.33;;;;;10.17;71.01;101321.13;2026038;28;3577802;-81
2024/03/14 02:27:04;;;;;;;;;23.00;21.67;;;;;10.19;70.80;101324.56;2025518;28;3572118;-81
2024/03/14 02:28:15;;;;;;;;;23.00;20.67;;;;;10.15;70.84;101321.13;2003337;28;3591882;-81
2024/03/14 02:29:27;;;;;;;;;22.67;21.00;;;;;10.14;71.07;101316.81;2010136;28;3590868;-81
2024/03/14 02:30:40;;;;;;;;;22.33;18.33;;;;;10.13;71.01;101325.56;1998809;28;3571130;-81
2024/03/14 02:31:52;;;;;;;;;23.00;20.00;;;;;10.12;70.88;101313.34;2000562;28;3579383;-80
2024/03/14 02:33:04;;;;;;;;;20.80;20.80;;;;;10.06;70.84;101313.47;2022482;28;3579366;-80
2024/03/14 02:34:15;;;;;;;;;19.67;17.33;;;;;10.11;70.72;101312.47;2022485;28;3571062;-81
2024/03/14 02:35:27;;;;;;;;;23.00;22.00;;;;;10.11;70.88;101322.13;2025199;28;3586702;-80
2024/03/14 02:36:39;;;;;;;;;22.00;19.67;;;;;10.09;70.80;101319.53;2031859;28;3583584;-81
2024/03/14 02:37:52;;;;;;;;;20.00;19.00;;;;;10.06;71.03;101308.22;2015314;28;3589830;-80
2024/03/14 02:39:05;;;;;;;;;16.33;16.00;;;;;10.07;70.77;101317.84;2000473;28;2821144;-81
2024/03/14 02:40:18;;;;;;;;;21.33;21.33;;;;;10.04;70.67;101313.50;2008288;28;3571089;-80
2024/03/14 02:41:29;;;;;;;;;22.00;22.00;;;;;10.01;70.84;101313.56;2016027;28;2844046;-81
2024/03/14 02:42:42;;;;;;;;;22.50;19.33;;;;;10.05;70.77;101315.22;2013291;28;1830490;-81
2024/03/14 02:43:56;;;;;;;;;21.00;19.33;;;;;10.01;70.62;101311.81;2007365;28;3583573;-81
2024/03/14 02:45:08;;;;;;;;;18.33;16.00;;;;;10.02;71.13;101310.06;2003831;28;3564877;-80
2024/03/14 02:46:20;;;;;;;;;25.00;19.33;;;;;10.02;70.80;101302.19;1999798;28;3588180;-81
2024/03/14 02:47:31;;;;;;;;;21.50;19.00;;;;;9.97;71.08;101301.41;2015023;28;2846465;-80
2024/03/14 02:48:44;;;;;;;;;17.00;14.20;;;;;9.97;71.12;101304.91;2012088;28;1823167;-81
2024/03/14 02:49:56;;;;;;;;;25.67;20.67;;;;;9.97;71.22;101302.28;2005527;28;3598187;-81
2024/03/14 02:51:10;;;;;;;;;21.00;18.67;;;;;9.94;70.94;101301.47;2014648;28;3579399;-81
2024/03/14 02:52:21;;;;;;;;;18.00;18.00;;;;;9.97;70.93;101306.66;2006205;28;2830458;-81
2024/03/14 02:53:33;;;;;;;;;18.60;17.40;;;;;9.95;71.00;101295.34;2004870;28;3554372;-81
2024/03/14 02:54:45;;;;;;;;;22.00;20.67;;;;;9.96;71.19;101303.16;2031021;28;3587787;-81
2024/03/14 02:55:57;;;;;;;;;23.00;18.00;;;;;9.95;71.02;101295.34;2025003;28;3583588;-81
2024/03/14 02:57:11;;;;;;;;;17.00;17.00;;;;;9.93;71.05;101291.84;2015542;28;2821103;-81
2024/03/14 02:58:23;;;;;;;;;21.33;21.00;;;;;9.93;71.26;101287.47;2015781;28;3573153;-81
2024/03/14 02:59:36;;;;;;;;;20.60;18.00;;;;;9.92;71.33;101283.13;2034019;28;1846148;-81
2024/03/14 03:00:48;;;;;;;;;20.00;20.00;;;;;9.93;71.05;101291.84;1977910;28;3575304;-81
2024/03/14 03:02:00;;;;;;;;;21.33;17.00;;;;;9.92;71.46;101282.25;2007387;28;2832636;-80
2024/03/14 03:03:12;;;;;;;;;21.33;19.00;;;;;9.88;71.24;101284.94;2007226;28;3571065;-80
2024/03/14 03:04:24;;;;;;;;;15.40;14.60;;;;;9.92;71.48;101284.88;2040512;28;1833623;-81
2024/03/14 03:05:35;;;;;;;;;17.33;17.33;;;;;9.92;71.36;101292.75;2015717;28;2833617;-81
2024/03/14 03:06:58;;;;;;;;;18.40;16.20;;;;;9.93;71.55;101286.59;2024884;28;2825293;-80
2024/03/14 03:08:12;;;;;;;;;15.67;15.67;;;;;9.90;71.55;101288.41;2009389;28;1829484;-81
2024/03/14 03:09:27;;;;;;;;;15.50;12.25;;;;;9.93;71.56;101291.84;1992373;28;1848241;-81
2024/03/14 03:10:37;;;;;;;;;20.00;16.50;;;;;9.93;71.41;101283.97;2010698;28;2831491;-81
2024/03/14 03:11:49;;;;;;;;;22.00;19.00;;;;;9.90;71.91;101290.19;1999717;28;3582527;-81
2024/03/14 03:13:01;;;;;;;;;20.40;17.60;;;;;9.89;71.63;101280.56;2034586;28;1833731;-81
2024/03/14 03:14:12;;;;;;;;;19.33;19.00;;;;;9.89;71.65;101270.94;2007284;28;3566899;-81
2024/03/14 03:15:23;;;;;;;;;19.50;19.50;;;;;9.89;71.43;101275.31;2017326;28;2828403;-81
2024/03/14 03:16:37;;;;;;;;;19.40;18.00;;;;;9.92;71.76;101272.63;2004073;28;3567946;-81
2024/03/14 03:17:48;;;;;;;;;19.00;17.67;;;;;9.88;71.53;101265.69;2014803;28;3571038;-81
2024/03/14 03:19:00;;;;;;;;;20.67;18.33;;;;;9.93;71.70;101269.09;2019413;28;3571109;-80
2024/03/14 03:20:11;;;;;;;;;19.00;17.00;;;;;9.95;71.78;101274.31;2008893;28;2821123;-81
2024/03/14 03:21:23;;;;;;;;;17.00;15.00;;;;;9.95;71.72;101269.91;1996226;28;2835650;-81
2024/03/14 03:23:05;;;;;;;;;18.00;17.33;;;;;9.95;71.79;101274.31;1982491;28;3560668;-81
2024/03/14 03:24:08;;;;;;;;;16.00;16.00;;;;;9.96;71.82;101268.16;2013159;28;2814849;-81
2024/03/14 03:25:20;;;;;;;;;20.67;18.67;;;;;9.97;71.69;101267.28;1992742;28;3575244;-81
2024/03/14 03:26:32;;;;;;;;;17.50;15.50;;;;;9.98;71.88;101272.47;2029648;28;2829436;-81
2024/03/14 03:27:43;;;;;;;;;15.33;15.00;;;;;9.97;71.60;101270.75;1993136;28;2816921;-81
2024/03/14 03:28:54;;;;;;;;;21.67;17.00;;;;;10.00;71.84;101273.31;2015282;28;3573232;-81
2024/03/14 03:30:06;;;;;;;;;18.50;17.50;;;;;9.97;71.80;101268.13;2023500;28;2825262;-81
2024/03/14 03:31:19;;;;;;;;;18.80;15.20;;;;;9.97;71.64;101262.03;2003495;28;2824252;-80
2024/03/14 03:32:31;;;;;;;;;20.67;16.33;;;;;10.01;71.69;101263.66;2017820;28;2826283;-81
2024/03/14 03:33:43;;;;;;;;;21.00;21.00;;;;;9.94;71.74;101259.44;1996570;28;3583587;-81
2024/03/14 03:34:55;;;;;;;;;19.67;18.67;;;;;9.98;71.78;101264.59;2020398;28;3571065;-80
2024/03/14 03:36:06;;;;;;;;;20.50;15.00;;;;;9.97;71.79;101264.66;2031596;28;2830470;-80
2024/03/14 03:37:18;;;;;;;;;19.00;17.00;;;;;9.94;71.55;101255.06;2005582;28;3573136;-81
2024/03/14 03:38:29;;;;;;;;;16.00;15.00;;;;;9.94;71.69;101256.81;2018692;28;2814873;-81
2024/03/14 03:39:40;;;;;;;;;16.00;14.00;;;;;9.99;71.75;101260.22;1995040;28;2819016;-81
2024/03/14 03:40:51;;;;;;;;;14.50;14.00;;;;;10.02;71.61;101270.66;2008164;28;2805531;-81
2024/03/14 03:42:03;;;;;;;;;16.40;15.40;;;;;9.99;71.57;101257.59;2001156;28;1827368;-81
2024/03/14 03:43:17;;;;;;;;;17.57;15.43;;;;;9.96;71.50;101255.91;2025528;28;1841924;-81
2024/03/14 03:44:29;;;;;;;;;15.00;14.50;;;;;10.00;71.82;101261.97;1999985;28;2801340;-81
2024/03/14 03:45:40;;;;;;;;;19.33;18.33;;;;;9.97;71.67;101256.75;1989000;28;2831572;-81
2024/03/14 03:46:51;;;;;;;;;18.33;16.33;;;;;9.92;71.70;101249.00;2011438;28;2833683;-80
2024/03/14 03:48:05;;;;;;;;;18.86;16.86;;;;;9.96;71.71;101257.66;2045847;28;1825290;-81
2024/03/14 03:49:16;;;;;;;;;20.00;14.00;;;;;10.01;71.68;101259.28;2015345;28;2821477;-81
2024/03/14 03:50:30;;;;;;;;;20.00;18.00;;;;;9.99;71.72;101260.22;1995423;28;2830445;-81
2024/03/14 03:51:42;;;;;;;;;15.67;14.67;;;;;9.96;71.75;101249.78;1983076;28;2821045;-81
2024/03/14 03:52:52;;;;;;;;;16.50;15.00;;;;;9.97;72.01;101256.75;2004624;28;2824220;-81
2024/03/14 03:54:03;;;;;;;;;16.00;13.00;;;;;9.94;71.94;101246.31;2001324;28;2809603;-80
2024/03/14 03:55:16;;;;;;;;;17.00;14.50;;;;;9.96;71.75;101249.78;2011646;28;2799221;-81
2024/03/14 03:56:28;;;;;;;;;19.00;17.67;;;;;9.93;71.52;101234.94;1973237;28;2824244;-81
2024/03/14 03:57:39;;;;;;;;;17.50;16.00;;;;;9.97;71.63;101241.00;2000737;28;2823195;-81
2024/03/14 03:58:49;;;;;;;;;16.50;15.00;;;;;9.88;71.37;101232.44;1985001;28;2823167;-81
2024/03/14 04:00:07;;;;;;;;;21.25;16.25;;;;;9.95;71.54;101242.81;2021028;28;1829442;-81
2024/03/14 04:01:22;;;;;;;;;16.50;15.00;;;;;9.96;71.85;101239.28;1982352;28;2817974;-81
2024/03/14 04:02:34;;;;;;;;;17.00;14.00;;;;;9.86;71.75;101228.09;1979067;28;2803750;-81
2024/03/14 04:03:45;;;;;;;;;15.00;15.00;;;;;9.94;71.71;101243.69;1984256;28;2798171;-81
2024/03/14 04:04:57;;;;;;;;;15.40;14.20;;;;;9.95;71.44;101242.81;2020152;28;1829435;-81
2024/03/14 04:06:15;;;;;;;;;16.33;16.33;;;;;9.92;71.49;101235.00;2015661;28;2818973;-81
2024/03/14 04:07:28;;;;;;;;;14.00;13.00;;;;;9.94;72.11;101235.81;2007965;28;2788808;-81
2024/03/14 04:08:39;;;;;;;;;16.50;14.50;;;;;9.95;71.67;101237.56;1977483;28;2814857;-81
2024/03/14 04:09:54;;;;;;;;;20.43;16.14;;;;;9.90;71.81;101229.78;2015302;28;1838308;-81
2024/03/14 04:11:09;;;;;;;;;15.00;12.25;;;;;9.91;71.84;101236.75;2028558;28;1837927;-81
2024/03/14 04:12:19;;;;;;;;;14.50;13.00;;;;;9.91;71.86;101234.13;2007776;28;2795425;-81
2024/03/14 04:13:31;;;;;;;;;17.00;16.00;;;;;9.89;71.48;101228.03;2002344;28;2821096;-80
2024/03/14 04:14:46;;;;;;;;;14.00;13.00;;;;;9.90;71.67;101235.88;1985613;28;2791930;-80
2024/03/14 04:16:06;;;;;;;;;16.50;16.17;;;;;9.93;71.72;101240.19;2045435;28;1834797;-81
2024/03/14 04:17:18;;;;;;;;;18.00;17.00;;;;;9.90;71.80;101232.41;2013767;28;2831492;-81
2024/03/14 04:18:31;;;;;;;;;18.67;17.00;;;;;9.88;71.75;101232.44;2007653;28;2830597;-82
2024/03/14 04:19:45;;;;;;;;;20.33;19.67;;;;;9.88;71.69;101237.69;2007900;28;3585648;-81
2024/03/14 04:20:57;;;;;;;;;16.67;16.00;;;;;9.88;71.78;101226.31;2008318;28;2823253;-80
2024/03/14 04:22:08;;;;;;;;;17.67;15.33;;;;;9.89;71.69;101228.91;2016840;28;2817021;-80
2024/03/14 04:23:20;;;;;;;;;22.33;20.00;;;;;9.89;71.94;101231.53;2007353;28;3585676;-81
2024/03/14 04:24:33;;;;;;;;;18.60;17.20;;;;;9.90;71.82;101228.00;2023066;28;2830427;-81
2024/03/14 04:25:44;;;;;;;;;20.50;20.50;;;;;9.89;71.70;101230.66;1990619;28;2846094;-80
2024/03/14 04:26:55;;;;;;;;;23.67;20.00;;;;;9.90;71.71;101229.78;1992567;28;3581435;-81
2024/03/14 04:28:07;;;;;;;;;19.33;17.33;;;;;9.93;71.84;101228.81;2017121;28;3567963;-81
2024/03/14 04:29:20;;;;;;;;;20.67;17.33;;;;;9.91;71.90;101221.00;2022855;28;3567387;-81
2024/03/14 04:30:31;;;;;;;;;19.67;19.33;;;;;9.89;71.80;101215.78;2009050;28;3566939;-81
2024/03/14 04:31:43;;;;;;;;;16.60;16.00;;;;;9.90;71.68;101216.66;2026545;28;1831036;-80
2024/03/14 04:32:56;;;;;;;;;23.67;21.33;;;;;9.90;72.03;101212.25;1997667;28;3581485;-80
2024/03/14 04:34:09;;;;;;;;;18.33;16.00;;;;;9.89;71.78;101210.53;2009084;28;2825261;-81
2024/03/14 04:35:22;;;;;;;;;19.00;18.00;;;;;9.94;72.07;101215.69;2007587;28;2796109;-80
2024/03/14 04:36:34;;;;;;;;;20.33;19.33;;;;;9.95;72.01;101217.38;1969844;28;3567933;-81
2024/03/14 04:37:49;;;;;;;;;19.00;17.00;;;;;9.92;72.05;101211.34;2022775;28;2827793;-80
2024/03/14 04:39:00;;;;;;;;;21.33;19.00;;;;;9.91;72.08;101205.25;1987980;28;3567948;-80
2024/03/14 04:40:12;;;;;;;;;14.00;13.00;;;;;9.88;72.11;101200.91;2027219;28;2795097;-81
2024/03/14 04:41:28;;;;;;;;;20.33;16.67;;;;;9.87;71.80;101196.59;2013530;28;3577288;-81
2024/03/14 04:42:41;;;;;;;;;14.60;14.60;;;;;9.94;71.91;101201.69;2038179;28;2795034;-81
2024/03/14 04:43:52;;;;;;;;;17.33;17.33;;;;;9.94;71.87;101202.56;1983377;28;3556537;-81
2024/03/14 04:45:04;;;;;;;;;19.40;17.40;;;;;9.95;71.77;101206.88;2034869;28;1829453;-81
2024/03/14 04:46:16;;;;;;;;;14.50;13.50;;;;;9.94;71.92;101199.06;2008874;28;2809633;-81
2024/03/14 04:47:27;;;;;;;;;12.00;10.50;;;;;9.93;72.00;101197.31;1993530;28;2785695;-80
2024/03/14 04:48:38;;;;;;;;;12.00;10.00;;;;;9.95;71.82;101206.03;2040556;28;1831731;-81
2024/03/14 04:49:49;;;;;;;;;17.50;16.00;;;;;9.96;72.07;101202.50;2006968;28;2820085;-81
2024/03/14 04:51:00;;;;;;;;;16.00;14.00;;;;;9.98;72.28;101205.94;2000683;28;2791891;-81
2024/03/14 04:52:12;;;;;;;;;17.00;16.00;;;;;9.95;71.80;101196.38;1990780;28;3566950;-81
2024/03/14 04:53:25;;;;;;;;;14.00;13.50;;;;;9.92;71.95;101185.97;2008270;28;2801698;-81
2024/03/14 04:54:38;;;;;;;;;21.00;16.17;;;;;9.99;71.79;101208.56;2029883;28;1827386;-80
2024/03/14 04:55:49;;;;;;;;;19.00;18.00;;;;;10.00;71.75;101206.81;1992417;28;2837874;-80
2024/03/14 04:57:01;;;;;;;;;18.00;15.00;;;;;9.95;71.92;101195.53;2016197;28;2814888;-80
2024/03/14 04:58:13;;;;;;;;;18.50;17.00;;;;;9.97;72.08;101199.00;1993541;28;2828411;-81
2024/03/14 04:59:30;;;;;;;;;21.00;18.43;;;;;9.98;72.15;101190.19;2022164;28;1820192;-81
2024/03/14 05:00:42;;;;;;;;;15.67;15.33;;;;;10.01;71.61;101190.13;2000992;28;2814923;-81
2024/03/14 05:01:56;;;;;;;;;17.17;14.50;;;;;10.01;71.62;101184.88;2033099;28;1837851;-81
2024/03/14 05:03:07;;;;;;;;;17.00;16.00;;;;;9.96;71.81;101176.25;1984341;28;2815891;-81
2024/03/14 05:04:18;;;;;;;;;15.50;13.00;;;;;10.00;71.85;101181.38;1979398;28;2773530;-80
2024/03/14 05:05:29;;;;;;;;;16.33;16.00;;;;;9.99;71.96;101179.69;2025157;28;2820155;-81
2024/03/14 05:06:44;;;;;;;;;18.00;16.50;;;;;10.01;71.63;101183.13;2005633;28;2823183;-81
2024/03/14 05:07:55;;;;;;;;;15.50;15.50;;;;;10.02;71.45;101184.00;1985578;28;2812798;-81
2024/03/14 05:09:08;;;;;;;;;17.33;15.83;;;;;9.99;71.57;101184.06;2023575;28;2816945;-81
2024/03/14 05:10:19;;;;;;;;;9.00;7.67;;;;;9.99;71.94;101187.56;2013831;28;2739183;-81
2024/03/14 05:11:33;;;;;;;;;18.71;16.71;;;;;9.96;71.76;101181.50;2014618;28;1828399;-81
2024/03/14 05:12:46;;;;;;;;;17.67;16.67;;;;;10.00;71.61;101191.06;2034042;28;1825298;-81
2024/03/14 05:14:02;;;;;;;;;16.83;13.00;;;;;9.92;71.69;101179.84;2016752;28;1831648;-81
2024/03/14 05:15:14;;;;;;;;;16.50;15.50;;;;;9.96;71.61;101182.38;1980813;28;2824244;-81
2024/03/14 05:16:27;;;;;;;;;18.00;14.17;;;;;9.98;71.75;101183.19;2008093;28;1841986;-80
2024/03/14 05:17:41;;;;;;;;;19.86;17.71;;;;;9.98;71.58;101184.94;2022694;28;1822204;-80
2024/03/14 05:18:52;;;;;;;;;14.00;13.00;;;;;9.95;71.58;101179.78;2005720;28;2782560;-81
2024/03/14 05:20:07;;;;;;;;;18.20;16.40;;;;;9.93;71.82;101186.81;2023929;28;3571180;-81
2024/03/14 05:21:19;;;;;;;;;19.67;15.33;;;;;9.94;71.79;101184.16;2001808;28;2826383;-81
2024/03/14 05:22:32;;;;;;;;;15.00;13.50;;;;;9.94;71.72;101180.69;1998431;28;2791420;-80
2024/03/14 05:23:43;;;;;;;;;14.50;14.50;;;;;9.95;71.75;101191.13;1999337;28;2805474;-80